Pasadena 2N

39° 08' 31"N, 76° 30' 27"W, Elevation 43 ft.
Eastern Time

Hourly observations for the last 72 hours

Date Time Temperature (°F) Humi-
dity

(%)
Wind
(mph)
Pressure Rain (in) Sun
(W/m2)
ET
(in)
Air Dew 6 Hour 1 Hr 3 Hr 6 Hr Day
Alt
(in)
Sea
Level

(mb)
Max Min
30 15:00 88.9 69.0 52 WNW 2 G 10 29.82 1010.0 0.00 863 0.067
30 14:00 87.9 69.7 87.9 73.5 55 NNE 4 G 15 29.82 1009.8 0.00 935 0.047
30 13:00 87.2 72.1 61 W 1 G 8 29.82 1009.8 0.00 882 0.029
30 12:00 85.6 73.0 66 NW 1 G 5 29.83 1010.1 0.00 251 0.013
30 11:00 83.4 73.0 71 W 6 G 11 29.83 1010.0 0.00 292 0.006
30 10:00 80.8 73.3 78 WNW 2 G 11 29.81 1009.5 0.00 109 0.003
30 09:00 77.3 73.8 89 W 5 G 9 29.80 1009.2 0.00 77 0.001
30 08:00 73.5 72.6 73.6 71.5 97 WNW 1 G 4 29.78 1008.7 0.00 56 0.000
30 07:00 71.9 71.0 97 NW 0 G 4 29.77 1008.0 0.00 28 0.000
30 06:00 72.1 71.2 97 WNW 0 G 1 29.76 1007.8 0.00 0 0.000
30 05:00 72.8 71.9 97 Calm 29.75 1007.6 0.00 0 0.000
30 04:00 72.0 71.1 97 Calm 29.74 1007.0 0.00 0 0.000
30 03:00 72.6 71.7 97 Calm 29.73 1006.7 0.00 0 0.000
30 02:00 73.3 72.1 74.6 72.9 96 Calm 29.74 1007.1 0.00 0 0.000
30 01:00 73.2 72.0 96 Calm 29.75 1007.6 0.00 0 0.000
30 00:00 73.3 72.1 96 Calm 29.76 1007.9 0.28 0 0.091
29 23:00 73.5 72.0 95 Calm 29.78 1008.4 0.28 0 0.091
29 22:00 73.5 72.0 95 Calm 29.77 1008.3 0.28 0 0.091
29 21:00 73.5 71.7 94 S 0 G 1 29.77 1008.2 0.28 0 0.091
29 20:00 74.5 72.3 88.8 74.5 93 SSE 0 G 3 29.78 1008.6 0.28 0.28 0.28 5 0.090
29 19:00 76.7 74.2 92 WSW 0 G 4 29.79 1008.9 0.28 25 0.087
29 18:00 77.1 73.6 89 S 0 G 4 29.80 1009.1 0.28 0.28 155 0.086
29 17:00 85.9 75.4 71 SSE 4 G 11 29.79 1008.9 0.00 40 0.077
29 16:00 87.1 77.8 74 WSW 2 G 9 29.82 1009.8 0.00 388 0.067
29 15:00 86.8 78.7 77 SE 2 G 9 29.84 1010.6 0.00 624 0.058
29 14:00 87.6 75.7 87.6 76.3 68 SSW 0 G 11 29.87 1011.5 0.00 445 0.046
29 13:00 86.2 75.7 71 S 0 G 8 29.89 1012.2 0.00 329 0.033
29 12:00 86.2 76.5 73 SSE 1 G 8 29.92 1013.3 0.00 469 0.020
29 11:00 83.4 76.2 79 S 3 G 9 29.93 1013.7 0.00 306 0.012
29 10:00 81.1 76.2 85 ESE 2 G 3 29.95 1014.4 0.00 141 0.007
29 09:00 79.0 75.1 88 E 1 G 8 29.95 1014.4 0.00 246 0.004
29 08:00 76.4 73.6 76.4 72.1 91 SE 0 G 3 29.96 1014.6 0.00 49 0.003
29 07:00 74.6 72.1 92 ESE 0 G 1 29.97 1014.9 0.00 18 0.003
29 06:00 72.6 69.8 91 SSE 1 G 4 29.96 1014.6 0.00 0 0.003
29 05:00 72.4 69.9 92 Calm 29.95 1014.3 0.00 0 0.003
29 04:00 72.5 69.4 90 Calm 29.96 1014.6 0.00 0 0.003
29 03:00 74.2 70.1 87 Calm 29.95 1014.3 0.00 0 0.002
29 02:00 75.6 71.1 82.6 74.8 86 SSE 2 G 7 29.96 1014.5 0.00 0 0.001
29 01:00 75.3 70.1 84 E 1 G 5 29.98 1015.1 0.00 0 0.000
29 00:00 75.3 70.1 84 SE 1 G 4 29.98 1015.2 0.00 0 0.137
28 23:00 76.7 70.8 82 ESE 1 G 7 29.98 1015.2 0.00 0 0.136
28 22:00 78.7 70.9 77 E 5 G 12 29.98 1015.1 0.00 0 0.134
28 21:00 80.3 70.5 72 ENE 0 G 3 29.94 1013.9 0.00 0 0.134
28 20:00 82.6 71.4 88.8 82.6 69 ENE 1 G 3 29.93 1013.5 0.00 7 0.132
28 19:00 86.5 72.4 63 ENE 2 G 6 29.93 1013.4 0.00 76 0.126
28 18:00 88.5 71.9 58 NE 4 G 9 29.93 1013.6 0.00 325 0.113
28 17:00 88.3 72.2 59 E 4 G 8 29.93 1013.4 0.00 510 0.103
28 16:00 85.3 71.8 64 NE 1 G 5 29.93 1013.7 0.00 742 0.093
28 15:00 85.7 71.2 62 E 3 G 9 29.95 1014.1 0.00 773 0.081
28 14:00 88.8 72.6 89.3 75.8 59 NE 5 G 10 29.94 1014.1 0.00 856 0.057
28 13:00 88.2 73.6 62 ENE 4 G 9 29.95 1014.4 0.00 837 0.034
28 12:00 86.7 71.2 60 NE 1 G 6 29.96 1014.7 0.00 770 0.014
28 11:00 83.6 71.1 66 N 1 G 8 29.97 1014.9 0.00 677 0.006
28 10:00 81.2 69.6 68 W 1 G 6 29.97 1014.9 0.00 98 0.003
28 09:00 78.6 69.6 74 N 1 G 3 29.97 1014.8 0.00 83 0.001
28 08:00 75.8 68.5 75.8 67.5 78 N 1 G 4 29.96 1014.7 0.00 60 0.000
28 07:00 70.4 67.3 90 NNW 1 G 4 29.96 1014.5 0.00 32 0.000
28 06:00 67.7 65.6 93 Calm 29.95 1014.3 0.00 0 0.000
28 05:00 68.7 66.9 94 Calm 29.93 1013.7 0.00 0 0.000
28 04:00 69.8 67.7 93 Calm 29.92 1013.3 0.00 0 0.000
28 03:00 71.2 69.1 93 Calm 29.91 1013.0 0.00 0 0.000
28 02:00 72.1 70.0 84.5 72.1 93 S 0 G 1 29.92 1013.2 0.00 0 0.000
28 01:00 72.9 70.1 91 S 0 G 1 29.92 1013.2 0.00 0 0.000
28 00:00 73.4 70.3 90 S 0 G 1 29.93 1013.5 0.00 0 0.144
27 23:00 74.6 70.8 88 Calm 29.93 1013.7 0.00 0 0.143
27 22:00 76.7 71.5 84 Calm 29.93 1013.6 0.00 0 0.142
27 21:00 80.1 72.6 78 SSE 0 G 2 29.91 1013.0 0.00 0 0.142
27 20:00 84.5 72.4 94.2 84.5 67 S 0 G 2 29.90 1012.4 0.00 11 0.140
27 19:00 89.2 72.5 58 SSE 2 G 5 29.89 1012.3 0.00 58 0.133
27 18:00 92.0 71.9 52 SE 2 G 10 29.90 1012.6 0.00 329 0.120
27 17:00 92.9 73.3 53 E 3 G 9 29.90 1012.5 0.00 524 0.107
27 16:00 92.7 72.0 51 ENE 4 G 8 29.91 1013.0 0.00 246 0.089

Data generated by WxSolution Version 1.9.1.8, Build 2020.02.16.